createdAt,value
2019-03-12T19:20:26.590Z,17.32
2019-03-12T19:22:56.575Z,15.28
2019-03-12T19:25:29.794Z,17.60
2019-03-12T19:28:00.624Z,22.65
2019-03-12T19:30:31.098Z,21.40
2019-03-12T19:33:12.979Z,18.95
2019-03-12T19:35:42.875Z,23.40
2019-03-12T19:38:12.905Z,16.23
2019-03-12T19:40:48.784Z,13.38
2019-03-12T19:43:19.023Z,10.98
2019-03-12T19:45:49.333Z,13.48
2019-03-12T19:48:19.228Z,12.47
2019-03-12T19:50:49.123Z,11.75
2019-03-12T19:53:19.996Z,12.60
2019-03-12T19:55:59.624Z,12.50
2019-03-12T19:58:29.555Z,14.87
2019-03-12T20:01:00.235Z,11.85
2019-03-12T20:03:30.169Z,11.80
2019-03-12T20:06:00.095Z,9.40
2019-03-12T20:08:30.127Z,7.53
2019-03-12T20:11:22.156Z,8.58
2019-03-12T20:14:14.700Z,10.20
2019-03-12T20:17:09.088Z,10.50
2019-03-12T20:19:53.979Z,8.63
2019-03-12T20:22:59.790Z,11.75
2019-03-12T20:25:54.268Z,5.92
2019-03-12T20:28:49.940Z,11.43
2019-03-12T20:34:16.164Z,9.48
2019-03-12T20:37:22.585Z,8.30
2019-03-12T20:44:54.936Z,7.42
2019-03-12T20:47:44.822Z,5.87
2019-03-12T20:50:52.951Z,6.90
2019-03-12T20:53:35.192Z,10.23
2019-03-12T20:56:29.368Z,11.40
2019-03-12T20:59:37.408Z,18.82
2019-03-12T21:02:11.039Z,12.18
2019-03-12T21:04:59.356Z,18.40
2019-03-12T21:08:00.843Z,10.82
2019-03-12T21:10:52.947Z,11.80
2019-03-12T21:13:38.119Z,12.98
2019-03-12T21:16:11.468Z,9.40
2019-03-12T21:18:56.922Z,9.13
2019-03-12T21:22:03.265Z,5.72
2019-03-12T21:24:33.758Z,9.83
2019-03-12T21:27:19.023Z,8.28
2019-03-12T21:29:51.335Z,10.78
2019-03-12T21:32:21.209Z,10.00
2019-03-12T21:34:51.206Z,9.93
2019-03-12T21:37:21.314Z,16.62
2019-03-12T21:39:55.784Z,6.00
2019-03-12T21:42:25.279Z,5.87
2019-03-12T21:44:54.990Z,9.50
2019-03-12T21:47:25.238Z,5.00
2019-03-12T21:49:55.114Z,5.78
2019-03-12T21:52:25.518Z,7.83
2019-03-12T21:54:55.518Z,5.55
2019-03-12T21:57:25.856Z,7.45
2019-03-12T21:59:56.282Z,4.42
2019-03-12T22:02:26.126Z,8.00
2019-03-12T22:04:56.285Z,6.15
2019-03-12T22:07:26.312Z,6.50
2019-03-12T22:09:56.761Z,4.12
2019-03-12T22:12:26.643Z,6.60
2019-03-12T22:14:56.560Z,5.03
2019-03-12T22:17:26.421Z,4.67
2019-03-12T22:19:56.291Z,5.78
2019-03-12T22:22:27.871Z,4.00
2019-03-12T22:24:57.805Z,8.03
2019-03-12T22:27:28.007Z,7.20
2019-03-12T22:29:58.022Z,3.85
2019-03-12T22:32:28.319Z,7.17
2019-03-12T22:34:58.185Z,5.65
2019-03-12T22:37:29.172Z,4.72
2019-03-12T22:39:59.116Z,6.65
2019-03-12T22:42:29.439Z,5.12
2019-03-12T22:44:59.356Z,3.87
2019-03-12T22:47:29.358Z,4.65
2019-03-12T22:49:59.360Z,7.33
2019-03-12T22:52:29.276Z,4.50
2019-03-12T22:54:59.221Z,4.65
2019-03-12T22:57:29.524Z,4.75
2019-03-12T23:00:21.323Z,2.87
2019-03-12T23:03:09.078Z,3.52
2019-03-12T23:05:57.119Z,5.35
2019-03-12T23:08:45.287Z,3.58
2019-03-12T23:11:17.147Z,4.65
2019-03-12T23:13:47.951Z,3.58
2019-03-12T23:16:19.404Z,4.97
2019-03-12T23:18:49.654Z,3.15
2019-03-12T23:21:19.847Z,4.20
2019-03-12T23:23:49.721Z,2.98
2019-03-12T23:26:19.882Z,5.62
2019-03-12T23:28:49.860Z,2.90
2019-03-12T23:31:20.256Z,4.85
2019-03-12T23:33:50.271Z,3.37
2019-03-12T23:36:20.150Z,4.40
2019-03-12T23:38:50.067Z,3.10
2019-03-12T23:41:19.873Z,5.65
2019-03-12T23:43:50.136Z,3.27
2019-03-12T23:46:20.428Z,3.98
2019-03-12T23:48:50.344Z,3.65
2019-03-12T23:51:20.296Z,2.98
2019-03-12T23:53:50.613Z,3.05
2019-03-12T23:56:20.502Z,2.45
2019-03-12T23:58:50.414Z,4.87
